Time;durP1;ratioP1;P1;durP2;ratioP2;P2;SDS_P1;SDS_P2;PMS_P1;PMS_P2;Temp;Humidity;BMP_temperature;BMP_pressure;BME280_temperature;BME280_humidity;BME280_pressure;Samples;Min_cycle;Max_cycle;Signal;HPM_P1;HPM_P2
2022/04/02 00:02:15;;;;;;;;;;;;;;;3.60;74.56;98728.59;4943195;29;19919;-84
2022/04/02 00:04:40;;;;;;;;;;;;;;;3.61;74.59;98725.09;4943640;29;19925;-82
2022/04/02 00:07:05;;;;;;;;;;;;;;;3.64;74.65;98728.44;4943990;29;20394;-84
2022/04/02 00:09:31;;;;;;;;;;;;;;;3.63;74.55;98731.13;4944132;29;20275;-82
2022/04/02 00:11:56;;;;;;;;;;;;;;;3.64;74.60;98717.13;4940676;29;19918;-85
2022/04/02 00:14:21;;;;;;;;;;;;;;;3.65;74.83;98721.44;4941434;29;20054;-82
2022/04/02 00:16:47;;;;;;;;;;;;;;;3.66;74.66;98722.31;4942205;29;19942;-82
2022/04/02 00:19:12;;;;;;;;;;;;;;;3.66;74.56;98720.53;4938215;29;20297;-82
2022/04/02 00:21:38;;;;;;;;;;;;;;;3.68;74.64;98726.59;4942765;29;19969;-82
2022/04/02 00:24:03;;;;;;;;;;;;;;;3.71;74.81;98729.09;4942401;28;19929;-82
2022/04/02 00:26:31;;;;;;;;;;;;;;;3.68;74.75;98726.59;4942201;29;19934;-84
2022/04/02 00:28:56;;;;;;;;;;;;;;;3.70;74.73;98730.03;4940120;29;19939;-81
2022/04/02 03:31:47;;;;;;;;;;;;;;;5.16;100.00;98805.53;5270738;23;19937;-88
2022/04/02 03:34:12;;;;;;;;;;;;;;;5.19;100.00;98800.16;4944870;29;19923;-86
2022/04/02 03:36:38;;;;;;;;;;;;;;;5.20;100.00;98801.00;4944710;29;20421;-84
2022/04/02 03:39:03;;;;;;;;;;;;;;;5.22;100.00;98805.31;4944670;29;20009;-89
2022/04/02 03:41:28;;;;;;;;;;;;;;;5.23;100.00;98799.16;4944654;28;19993;-88
2022/04/02 03:43:56;;;;;;;;;;;;;;;5.24;100.00;98808.72;4944458;29;19928;-90
2022/04/02 03:49:05;;;;;;;;;;;;;;;5.22;100.00;98810.56;4944152;29;20462;-85
2022/04/02 03:51:31;;;;;;;;;;;;;;;5.25;100.00;98810.44;4944087;29;20009;-84
2022/04/02 03:53:58;;;;;;;;;;;;;;;5.24;100.00;98815.75;4943886;29;19923;-82
2022/04/02 03:56:23;;;;;;;;;;;;;;;5.23;100.00;98812.28;4944877;29;20022;-82
2022/04/02 03:58:48;;;;;;;;;;;;;;;4.35;100.00;98817.91;4943987;29;20009;-88
2022/04/02 04:01:13;;;;;;;;;;;;;;;3.98;100.00;98823.50;4942852;29;19919;-80
2022/04/02 04:03:39;;;;;;;;;;;;;;;3.81;100.00;98827.50;4944040;29;19919;-81
2022/04/02 04:06:04;;;;;;;;;;;;;;;3.73;100.00;98826.00;4944424;29;19974;-81
2022/04/02 04:08:29;;;;;;;;;;;;;;;3.62;100.00;98823.69;4942685;29;19926;-82
2022/04/02 04:10:54;;;;;;;;;;;;;;;3.53;100.00;98831.88;4942711;29;19926;-91
2022/04/02 04:13:20;;;;;;;;;;;;;;;3.48;100.00;98825.88;4942462;29;19958;-81
2022/04/02 04:15:45;;;;;;;;;;;;;;;3.71;100.00;98836.53;4941431;29;20079;-84
2022/04/02 04:18:11;;;;;;;;;;;;;;;3.67;100.00;98834.94;4944132;29;19957;-84
2022/04/02 04:20:36;;;;;;;;;;;;;;;3.57;100.00;98833.47;4945145;28;19929;-82
2022/04/02 04:23:01;;;;;;;;;;;;;;;3.54;100.00;98838.78;4947274;29;19918;-83
2022/04/02 04:25:26;;;;;;;;;;;;;;;3.42;100.00;98840.88;4947382;29;20087;-85
2022/04/02 04:27:51;;;;;;;;;;;;;;;3.39;100.00;98840.97;4947645;29;19919;-83
2022/04/02 04:30:17;;;;;;;;;;;;;;;3.33;100.00;98845.53;4945993;29;20456;-85
2022/04/02 04:32:42;;;;;;;;;;;;;;;3.28;99.85;98848.25;4946026;29;19927;-82
2022/04/02 04:35:08;;;;;;;;;;;;;;;3.27;99.55;98851.78;4947548;29;20282;-81
2022/04/02 04:37:37;;;;;;;;;;;;;;;3.14;98.96;98850.41;4947366;29;19923;-86
2022/04/02 04:40:04;;;;;;;;;;;;;;;3.13;98.63;98853.91;4947614;29;19930;-82
2022/04/02 04:42:29;;;;;;;;;;;;;;;3.11;98.33;98856.56;4946954;29;19926;-86
2022/04/02 04:44:55;;;;;;;;;;;;;;;3.07;98.00;98855.81;4946848;29;19919;-83
2022/04/02 04:47:20;;;;;;;;;;;;;;;3.09;97.54;98861.00;4946244;29;20486;-88
2022/04/02 04:49:45;;;;;;;;;;;;;;;3.00;97.02;98858.63;4946894;29;19918;-85
2022/04/02 04:52:10;;;;;;;;;;;;;;;2.94;96.95;98864.06;4946736;29;19966;-86
2022/04/02 08:03:03;;;;;;;;;;;;;;;2.09;82.43;99103.94;5729920;23;20789;-75
2022/04/02 08:05:28;;;;;;;;;;;;;;;2.03;82.08;99109.28;4915213;29;20037;-76
2022/04/02 08:07:55;;;;;;;;;;;;;;;2.03;81.98;99114.50;4918444;29;20002;-77
2022/04/02 08:10:22;;;;;;;;;;;;;;;2.03;82.06;99119.72;4919844;29;19920;-78
2022/04/02 08:12:47;;;;;;;;;;;;;;;2.06;81.93;99117.94;4918951;29;20001;-75
2022/04/02 08:15:16;;;;;;;;;;;;;;;2.08;82.04;99125.75;4916946;29;21513;-75
2022/04/02 08:17:42;;;;;;;;;;;;;;;2.04;81.80;99124.94;4916523;29;19919;-75
2022/04/02 08:20:08;;;;;;;;;;;;;;;2.07;81.77;99124.88;4918186;29;19962;-76
2022/04/02 08:22:34;;;;;;;;;;;;;;;2.07;81.68;99121.41;4917498;29;19923;-75
2022/04/02 08:24:59;;;;;;;;;;;;;;;2.05;81.43;99126.66;4916639;29;19998;-75
2022/04/02 08:27:25;;;;;;;;;;;;;;;2.11;82.13;99138.78;4917838;29;19923;-78
2022/04/02 08:30:19;;;;;;;;;;;;;;;2.49;86.84;99137.13;4917851;29;19981;-78
2022/04/02 08:33:23;;;;;;;;;;;;;;;2.81;92.04;99141.72;4904304;29;19923;-79
2022/04/02 08:36:09;;;;;;;;;;;;;;;2.93;95.45;99145.81;4878895;29;19924;-80
2022/04/02 08:38:34;;;;;;;;;;;;;;;2.75;95.70;99143.59;4878313;29;20358;-79
2022/04/02 08:41:18;;;;;;;;;;;;;;;2.69;95.66;99152.44;4902600;29;20010;-78
2022/04/02 08:44:02;;;;;;;;;;;;;;;2.67;95.62;99157.69;4917740;29;19975;-78
2022/04/02 08:46:43;;;;;;;;;;;;;;;2.64;95.30;99155.13;4918179;29;19978;-79
2022/04/02 08:49:28;;;;;;;;;;;;;;;2.60;94.84;99163.06;4916422;29;19919;-79
2022/04/02 08:51:59;;;;;;;;;;;;;;;2.58;94.43;99165.72;4915765;29;19931;-76
2022/04/02 08:54:26;;;;;;;;;;;;;;;2.59;94.09;99172.69;4917946;29;19997;-77
2022/04/02 08:56:59;;;;;;;;;;;;;;;2.51;93.60;99174.59;4917508;29;19930;-76
2022/04/02 08:59:37;;;;;;;;;;;;;;;2.52;93.15;99173.69;4917418;29;20363;-77
2022/04/02 09:02:21;;;;;;;;;;;;;;;2.51;92.84;99174.59;4916648;29;20014;-76
2022/04/02 09:04:49;;;;;;;;;;;;;;;2.52;92.43;99186.75;4916327;29;20454;-77
2022/04/02 09:07:20;;;;;;;;;;;;;;;2.50;92.14;99188.56;4915441;29;19923;-77
2022/04/02 09:10:04;;;;;;;;;;;;;;;2.46;91.65;99184.31;4917750;29;19919;-77
2022/04/02 09:13:07;;;;;;;;;;;;;;;2.47;91.20;99188.63;4917825;29;19923;-77
2022/04/02 09:16:05;;;;;;;;;;;;;;;2.46;90.51;99194.75;4877693;29;19967;-77
2022/04/02 09:18:45;;;;;;;;;;;;;;;2.49;90.10;99192.06;4876790;29;19931;-77
2022/04/02 09:21:14;;;;;;;;;;;;;;;2.48;89.77;99201.66;4913753;29;19920;-76
2022/04/02 09:24:02;;;;;;;;;;;;;;;2.48;89.50;99201.66;4917418;29;19923;-76
2022/04/02 09:26:46;;;;;;;;;;;;;;;2.51;89.04;99203.38;4916857;29;19958;-77
2022/04/02 09:29:11;;;;;;;;;;;;;;;2.46;88.38;99200.00;4917857;29;19919;-76
2022/04/02 09:31:55;;;;;;;;;;;;;;;2.51;88.09;99199.00;4916891;29;19926;-77
2022/04/02 09:34:39;;;;;;;;;;;;;;;2.51;87.96;99206.00;4916981;29;20310;-77
2022/04/02 09:37:23;;;;;;;;;;;;;;;2.55;88.08;99205.00;4917366;29;19954;-76
2022/04/02 09:39:48;;;;;;;;;;;;;;;2.60;88.68;99204.94;4916246;29;20018;-76
2022/04/02 09:42:19;;;;;;;;;;;;;;;2.61;88.67;99217.97;4917958;29;20348;-76
2022/04/02 09:44:44;;;;;;;;;;;;;;;2.67;88.73;99224.88;4915797;29;19926;-76
2022/04/02 09:47:15;;;;;;;;;;;;;;;2.63;88.45;99216.22;4915423;29;20381;-77
2022/04/02 09:49:40;;;;;;;;;;;;;;;2.62;88.19;99213.63;4917754;29;19915;-76
2022/04/02 09:52:06;;;;;;;;;;;;;;;2.60;87.81;99210.16;4917372;29;20015;-77
2022/04/02 09:54:44;;;;;;;;;;;;;;;2.64;87.60;99215.31;4917033;29;19919;-76
2022/04/02 09:57:21;;;;;;;;;;;;;;;2.61;86.90;99214.50;4917298;29;19919;-77
2022/04/02 10:00:04;;;;;;;;;;;;;;;2.60;86.55;99225.84;4915828;29;19919;-77
2022/04/02 10:02:48;;;;;;;;;;;;;;;2.68;86.48;99224.84;4915546;29;20425;-77
2022/04/02 10:05:19;;;;;;;;;;;;;;;2.66;86.00;99217.88;4916887;29;20406;-77
2022/04/02 10:08:04;;;;;;;;;;;;;;;2.64;85.61;99232.78;4915620;29;19931;-77
2022/04/02 10:10:29;;;;;;;;;;;;;;;2.66;85.33;99228.34;4916521;29;20406;-77
2022/04/02 10:12:55;;;;;;;;;;;;;;;2.68;85.30;99235.28;4915189;29;19984;-76
2022/04/02 10:15:22;;;;;;;;;;;;;;;2.69;84.93;99234.38;4916884;29;20413;-76
2022/04/02 10:17:51;;;;;;;;;;;;;;;2.67;84.58;99228.31;4915336;29;19919;-76
2022/04/02 10:20:20;;;;;;;;;;;;;;;2.66;84.03;99234.44;4914788;29;21399;-77
2022/04/02 10:22:45;;;;;;;;;;;;;;;2.66;84.06;99231.81;4915899;29;19919;-76
2022/04/02 10:25:14;;;;;;;;;;;;;;;2.66;83.75;99239.69;4916552;29;19919;-77
2022/04/02 10:27:41;;;;;;;;;;;;;;;2.68;83.49;99234.41;4915936;29;19934;-76
2022/04/02 10:30:07;;;;;;;;;;;;;;;2.73;83.38;99237.81;4915464;29;20010;-77
2022/04/02 10:32:45;;;;;;;;;;;;;;;2.72;83.40;99239.56;4914811;29;19982;-79
2022/04/02 10:35:11;;;;;;;;;;;;;;;2.72;83.19;99236.94;4915459;29;20004;-76
2022/04/02 10:37:37;;;;;;;;;;;;;;;2.77;83.04;99243.84;4916263;29;19923;-77
2022/04/02 10:40:04;;;;;;;;;;;;;;;2.75;82.71;99250.88;4915270;29;19923;-77
2022/04/02 10:42:32;;;;;;;;;;;;;;;2.80;82.45;99259.50;4916356;29;19923;-77
2022/04/02 10:44:58;;;;;;;;;;;;;;;2.80;82.42;99255.13;4915529;29;19926;-76
2022/04/02 10:47:26;;;;;;;;;;;;;;;2.81;82.39;99254.22;4915403;29;19963;-76
2022/04/02 10:49:56;;;;;;;;;;;;;;;2.82;81.95;99248.09;4914639;29;20346;-77
2022/04/02 10:52:27;;;;;;;;;;;;;;;2.80;81.76;99243.78;4916200;29;20338;-75
2022/04/02 10:54:52;;;;;;;;;;;;;;;2.81;81.58;99249.00;4914121;29;19927;-76
2022/04/02 10:57:17;;;;;;;;;;;;;;;2.82;81.44;99249.84;4915502;29;20029;-77
2022/04/02 10:59:44;;;;;;;;;;;;;;;2.82;81.26;99250.69;4915150;29;19923;-76
2022/04/02 11:02:19;;;;;;;;;;;;;;;2.85;80.89;99244.56;4913324;29;20383;-77
2022/04/02 11:05:03;;;;;;;;;;;;;;;2.86;80.59;99239.28;4914404;29;19930;-76
2022/04/02 11:07:37;;;;;;;;;;;;;;;2.88;80.49;99245.34;4914403;29;19923;-76
2022/04/02 11:10:04;;;;;;;;;;;;;;;2.89;80.23;99241.00;4915319;29;19962;-76
2022/04/02 11:12:30;;;;;;;;;;;;;;;2.89;79.98;99248.84;4914086;29;19966;-76
2022/04/02 11:15:23;;;;;;;;;;;;;;;2.88;79.96;99245.34;4913711;29;20293;-77
2022/04/02 11:17:48;;;;;;;;;;;;;;;2.93;79.83;99260.97;4908713;29;19929;-76
2022/04/02 11:20:17;;;;;;;;;;;;;;;2.97;79.71;99259.13;4914665;29;19930;-77
2022/04/02 11:22:51;;;;;;;;;;;;;;;2.91;79.53;99261.00;4913810;29;20334;-76
2022/04/02 11:25:34;;;;;;;;;;;;;;;2.93;79.50;99271.44;4920894;29;19924;-76
2022/04/02 11:28:05;;;;;;;;;;;;;;;2.93;79.21;99271.44;4914773;29;19990;-75
2022/04/02 11:30:35;;;;;;;;;;;;;;;2.97;79.24;99267.88;4913943;29;19935;-76
2022/04/02 11:33:07;;;;;;;;;;;;;;;3.01;79.40;99279.13;4912991;29;19931;-76
2022/04/02 11:35:37;;;;;;;;;;;;;;;3.03;79.24;99274.72;4914610;29;19934;-75
2022/04/02 11:38:08;;;;;;;;;;;;;;;3.02;78.98;99281.72;4915038;29;19982;-76
2022/04/02 11:40:38;;;;;;;;;;;;;;;3.04;79.05;99284.31;4914893;29;20287;-76
2022/04/02 11:43:03;;;;;;;;;;;;;;;3.05;79.00;99280.81;4912097;29;19934;-76
2022/04/02 11:45:32;;;;;;;;;;;;;;;3.08;78.88;99283.38;4913056;29;19923;-76
2022/04/02 11:48:09;;;;;;;;;;;;;;;3.07;78.75;99279.00;4913561;29;20014;-76
2022/04/02 11:50:37;;;;;;;;;;;;;;;3.11;78.71;99283.28;4914371;29;19942;-76
2022/04/02 11:53:03;;;;;;;;;;;;;;;3.08;78.60;99284.22;4913879;29;19927;-76
2022/04/02 11:55:33;;;;;;;;;;;;;;;3.07;78.61;99287.72;4915410;29;19954;-77
2022/04/02 11:58:03;;;;;;;;;;;;;;;3.13;78.73;99291.09;4914601;29;19933;-76
2022/04/02 12:00:33;;;;;;;;;;;;;;;3.08;78.53;99297.31;4914787;29;19930;-76
2022/04/02 12:02:59;;;;;;;;;;;;;;;3.12;78.54;99299.88;4912812;29;19927;-76
2022/04/02 12:05:35;;;;;;;;;;;;;;;3.11;78.57;99298.13;4914586;29;19983;-75
2022/04/02 12:08:01;;;;;;;;;;;;;;;3.15;79.02;99297.19;4913402;29;19951;-76
2022/04/02 12:10:27;;;;;;;;;;;;;;;3.15;79.46;99297.19;4915419;29;20426;-76
2022/04/02 12:12:58;;;;;;;;;;;;;;;3.16;79.55;99299.78;4914876;29;19923;-76
2022/04/02 12:15:24;;;;;;;;;;;;;;;3.21;80.41;99297.06;4913283;29;19925;-76
2022/04/02 12:17:59;;;;;;;;;;;;;;;3.23;81.48;99301.38;4913278;29;20352;-76
2022/04/02 12:20:29;;;;;;;;;;;;;;;3.24;82.41;99297.00;4914653;29;19919;-76
2022/04/02 12:23:13;;;;;;;;;;;;;;;3.23;82.96;99293.50;4912177;29;19943;-77
2022/04/02 12:25:39;;;;;;;;;;;;;;;3.25;83.26;99298.72;4914964;29;19981;-77
2022/04/02 12:28:12;;;;;;;;;;;;;;;3.27;83.43;99310.00;4915187;29;19926;-76
2022/04/02 12:30:39;;;;;;;;;;;;;;;3.26;83.78;99306.53;4914765;29;19919;-76
2022/04/02 12:33:08;;;;;;;;;;;;;;;3.28;83.83;99319.59;4912309;29;19940;-76
2022/04/02 12:35:34;;;;;;;;;;;;;;;3.30;83.99;99323.03;4914045;29;20343;-76
2022/04/02 12:38:02;;;;;;;;;;;;;;;3.31;84.17;99323.91;4914695;29;19923;-76
2022/04/02 12:40:31;;;;;;;;;;;;;;;3.34;84.19;99329.94;4915247;29;19934;-76
2022/04/02 12:43:00;;;;;;;;;;;;;;;3.33;84.11;99320.34;4917469;29;19927;-76
2022/04/02 12:45:27;;;;;;;;;;;;;;;3.44;85.22;99325.38;4917693;29;20011;-76
2022/04/02 12:47:58;;;;;;;;;;;;;;;3.72;88.80;99320.41;4915120;29;19927;-77
2022/04/02 12:50:24;;;;;;;;;;;;;;;3.76;90.35;99332.53;4917070;29;19927;-75
2022/04/02 12:52:50;;;;;;;;;;;;;;;3.85;91.58;99334.09;4916464;29;19938;-76
2022/04/02 12:55:19;;;;;;;;;;;;;;;3.91;92.74;99330.47;4917148;29;19923;-76
2022/04/02 12:58:02;;;;;;;;;;;;;;;3.95;93.85;99337.38;4917533;29;20331;-76
2022/04/02 13:00:31;;;;;;;;;;;;;;;3.92;94.91;99338.28;4916173;29;19966;-76
2022/04/02 13:02:58;;;;;;;;;;;;;;;3.90;95.66;99339.25;4915644;29;19923;-76
2022/04/02 13:05:25;;;;;;;;;;;;;;;3.85;96.07;99343.72;4917452;29;19954;-76
2022/04/02 13:08:00;;;;;;;;;;;;;;;3.80;96.53;99341.22;4916252;29;20316;-77
2022/04/02 13:10:27;;;;;;;;;;;;;;;3.71;96.56;99334.41;4917281;29;20018;-76
2022/04/02 13:12:53;;;;;;;;;;;;;;;3.63;96.60;99347.66;4917227;29;19969;-77
2022/04/02 13:15:21;;;;;;;;;;;;;;;3.56;96.63;99350.47;4917643;29;20021;-76
2022/04/02 13:20:34;;;;;;;;;;;;;;;3.50;99.24;99348.84;4917318;29;19934;-77
2022/04/02 13:23:01;;;;;;;;;;;;;;;3.43;100.00;99355.97;4917128;29;19927;-77
2022/04/02 13:25:29;;;;;;;;;;;;;;;3.41;100.00;99362.13;4916900;29;19930;-77
2022/04/02 13:28:12;;;;;;;;;;;;;;;3.47;100.00;99355.91;4917560;29;19973;-76
2022/04/02 13:30:38;;;;;;;;;;;;;;;3.73;100.00;99366.66;4916062;29;19931;-76
2022/04/02 13:33:06;;;;;;;;;;;;;;;3.92;100.00;99364.50;4915934;29;20340;-75
2022/04/02 13:35:36;;;;;;;;;;;;;;;4.41;100.00;99367.75;4915965;29;19931;-76
2022/04/02 13:38:08;;;;;;;;;;;;;;;4.73;100.00;99371.34;4914071;29;19986;-78
2022/04/02 13:40:36;;;;;;;;;;;;;;;4.50;100.00;99371.91;4916780;29;20029;-77
2022/04/02 13:43:05;;;;;;;;;;;;;;;4.50;100.00;99372.78;4916716;29;19927;-78
2022/04/02 13:45:34;;;;;;;;;;;;;;;4.51;100.00;99379.72;4917056;29;19927;-77
2022/04/02 13:48:03;;;;;;;;;;;;;;;4.52;100.00;99381.47;4915152;29;19931;-78
2022/04/02 13:50:29;;;;;;;;;;;;;;;4.53;100.00;99388.44;4917009;29;19923;-78
2022/04/02 13:53:02;;;;;;;;;;;;;;;4.53;100.00;99377.97;4915856;29;19926;-77
2022/04/02 13:55:29;;;;;;;;;;;;;;;4.59;100.00;99382.16;4915908;29;19923;-78
2022/04/02 13:57:58;;;;;;;;;;;;;;;4.59;100.00;99382.16;4915720;29;19933;-77
2022/04/02 14:00:26;;;;;;;;;;;;;;;4.61;100.00;99379.50;4914845;29;20387;-76
2022/04/02 14:02:52;;;;;;;;;;;;;;;4.61;100.00;99385.66;4915082;29;19930;-78
2022/04/02 14:05:25;;;;;;;;;;;;;;;4.64;100.00;99389.94;4916303;29;19926;-78
2022/04/02 14:08:07;;;;;;;;;;;;;;;4.65;100.00;99386.41;4916295;29;20316;-78
2022/04/02 14:10:40;;;;;;;;;;;;;;;4.66;100.00;99385.50;4914626;29;19938;-78
2022/04/02 14:13:09;;;;;;;;;;;;;;;4.68;100.00;99394.22;4916724;29;19927;-79
2022/04/02 14:15:38;;;;;;;;;;;;;;;4.71;100.00;99392.38;4913759;29;20010;-77
2022/04/02 14:18:08;;;;;;;;;;;;;;;4.72;100.00;99391.47;4914613;29;20018;-77
2022/04/02 14:20:33;;;;;;;;;;;;;;;4.72;100.00;99387.97;4915617;29;19931;-77
2022/04/02 14:22:58;;;;;;;;;;;;;;;4.75;100.00;99395.78;4914513;29;19938;-77
2022/04/02 14:25:35;;;;;;;;;;;;;;;4.76;100.00;99404.53;4914859;29;19927;-76
2022/04/02 14:28:19;;;;;;;;;;;;;;;4.71;100.00;99409.91;4914888;29;19923;-77
2022/04/02 14:31:02;;;;;;;;;;;;;;;3.91;100.00;99409.09;4915122;29;19927;-78
2022/04/02 14:33:46;;;;;;;;;;;;;;;3.60;100.00;99410.59;4914868;29;19983;-78
2022/04/02 14:36:30;;;;;;;;;;;;;;;3.49;100.00;99420.44;4919670;29;21011;-77
2022/04/02 14:39:14;;;;;;;;;;;;;;;3.42;100.00;99438.03;4915304;29;20438;-78
2022/04/02 14:41:55;;;;;;;;;;;;;;;3.33;100.00;99421.66;4916421;29;20000;-77
2022/04/02 14:44:26;;;;;;;;;;;;;;;3.24;100.00;99428.78;4915773;29;19923;-77
2022/04/02 14:47:09;;;;;;;;;;;;;;;3.16;100.00;99435.03;4915035;29;19976;-77
2022/04/02 14:49:55;;;;;;;;;;;;;;;3.18;100.00;99433.28;4915405;29;19930;-77
2022/04/02 14:52:38;;;;;;;;;;;;;;;3.11;100.00;99434.25;4885197;29;19993;-78
2022/04/02 14:55:22;;;;;;;;;;;;;;;3.07;99.89;99438.69;4915225;29;19975;-77
2022/04/02 14:57:54;;;;;;;;;;;;;;;3.01;99.08;99433.56;4913321;29;19930;-77
2022/04/02 15:00:45;;;;;;;;;;;;;;;2.98;98.51;99434.47;4922725;29;19982;-77
2022/04/02 15:03:29;;;;;;;;;;;;;;;2.95;97.84;99441.53;4906626;29;19923;-77
2022/04/02 15:05:58;;;;;;;;;;;;;;;2.89;97.31;99443.38;4929325;29;20537;-76
2022/04/02 15:08:41;;;;;;;;;;;;;;;2.87;96.62;99434.69;4915236;29;19923;-77
2022/04/02 15:11:15;;;;;;;;;;;;;;;2.87;96.09;99445.16;4930491;29;20290;-78
2022/04/02 15:13:50;;;;;;;;;;;;;;;2.81;95.58;99445.25;4914471;29;19927;-76
2022/04/02 15:16:24;;;;;;;;;;;;;;;2.78;95.26;99445.31;4915461;29;19923;-77
2022/04/02 15:18:49;;;;;;;;;;;;;;;2.81;94.80;99446.97;4913957;29;19927;-78
2022/04/02 15:21:14;;;;;;;;;;;;;;;2.80;94.43;99455.75;4915336;29;20370;-77
2022/04/02 15:23:58;;;;;;;;;;;;;;;2.80;94.09;99460.97;4913380;29;19997;-77
2022/04/02 15:26:24;;;;;;;;;;;;;;;2.75;93.50;99465.44;4913859;29;19923;-77
2022/04/02 15:29:06;;;;;;;;;;;;;;;2.70;93.10;99458.50;4914381;29;19927;-77
2022/04/02 15:31:32;;;;;;;;;;;;;;;2.69;92.88;99459.38;4922523;29;19924;-77
2022/04/02 15:33:57;;;;;;;;;;;;;;;2.65;92.54;99465.56;4912783;29;19923;-77
2022/04/02 15:36:23;;;;;;;;;;;;;;;2.66;92.39;99469.91;4914714;29;19979;-77
2022/04/02 15:38:50;;;;;;;;;;;;;;;2.63;92.17;99463.84;4914029;29;19935;-77
2022/04/02 15:41:16;;;;;;;;;;;;;;;2.63;92.00;99476.94;4913531;29;19931;-77
2022/04/02 15:43:42;;;;;;;;;;;;;;;2.61;91.57;99469.09;4915066;29;20307;-76
2022/04/02 15:46:28;;;;;;;;;;;;;;;2.60;91.19;99472.63;4914129;29;20062;-77
2022/04/02 15:49:06;;;;;;;;;;;;;;;2.62;90.86;99483.94;4913628;29;19927;-76
2022/04/02 15:51:34;;;;;;;;;;;;;;;2.59;90.65;99480.50;4914531;29;19923;-76
2022/04/02 15:54:18;;;;;;;;;;;;;;;2.60;90.30;99488.31;4912947;29;19927;-77
2022/04/02 15:56:59;;;;;;;;;;;;;;;2.56;90.03;99485.78;4915148;29;20021;-77
2022/04/02 15:59:24;;;;;;;;;;;;;;;2.52;89.71;99501.50;4913722;29;19931;-77
2022/04/02 16:01:49;;;;;;;;;;;;;;;2.48;89.43;99485.88;4916230;29;19924;-77
2022/04/02 16:04:18;;;;;;;;;;;;;;;2.49;89.15;99501.56;4915458;29;19923;-76
2022/04/02 16:06:43;;;;;;;;;;;;;;;2.50;88.95;99498.03;4915076;29;19927;-77
2022/04/02 16:09:09;;;;;;;;;;;;;;;2.48;88.73;99504.19;4913630;29;20397;-76
2022/04/02 16:11:35;;;;;;;;;;;;;;;2.46;88.64;99500.75;4910593;29;19927;-76
2022/04/02 16:14:11;;;;;;;;;;;;;;;2.41;88.30;99502.53;4912229;29;20280;-76
2022/04/02 16:16:51;;;;;;;;;;;;;;;2.43;87.91;99506.03;4920002;29;19958;-77
2022/04/02 16:19:30;;;;;;;;;;;;;;;2.39;87.77;99505.16;4916292;29;20454;-77
2022/04/02 16:22:16;;;;;;;;;;;;;;;2.36;87.51;99503.47;4917424;29;20278;-77
2022/04/02 16:24:44;;;;;;;;;;;;;;;2.35;87.48;99503.50;4918629;29;19925;-76
2022/04/02 16:27:10;;;;;;;;;;;;;;;2.36;87.27;99510.44;4918185;29;19925;-76
2022/04/02 16:29:36;;;;;;;;;;;;;;;2.33;87.12;99515.72;4918774;29;19927;-76
2022/04/02 16:32:03;;;;;;;;;;;;;;;2.31;86.93;99513.16;4917842;29;20128;-76
2022/04/02 16:34:30;;;;;;;;;;;;;;;2.31;87.08;99514.88;4918711;29;19923;-77
2022/04/02 16:37:00;;;;;;;;;;;;;;;2.31;86.77;99520.09;4916827;29;19923;-76
2022/04/02 16:39:28;;;;;;;;;;;;;;;2.29;86.60;99514.91;4918184;29;19975;-77
2022/04/02 16:41:59;;;;;;;;;;;;;;;2.31;86.54;99522.72;4917935;29;19962;-76
2022/04/02 16:44:28;;;;;;;;;;;;;;;2.25;86.18;99523.69;4918388;29;19923;-76
2022/04/02 16:46:58;;;;;;;;;;;;;;;2.28;85.98;99539.34;4916933;29;20387;-77
2022/04/02 16:49:23;;;;;;;;;;;;;;;2.30;85.75;99547.16;4917644;29;20325;-76
2022/04/02 16:51:49;;;;;;;;;;;;;;;2.27;85.33;99548.06;4917023;29;19919;-77
2022/04/02 16:54:15;;;;;;;;;;;;;;;2.25;85.19;99549.84;4918377;29;19939;-77
2022/04/02 16:56:40;;;;;;;;;;;;;;;2.26;85.13;99546.31;4918405;29;19920;-76
2022/04/02 16:59:06;;;;;;;;;;;;;;;2.95;84.57;99551.47;4916696;29;19923;-80
2022/04/02 17:01:47;;;;;;;;;;;;;;;3.06;83.32;99558.28;4917035;29;19919;-77
2022/04/02 17:04:18;;;;;;;;;;;;;;;2.66;84.84;99558.00;4916582;29;19933;-77
2022/04/02 17:06:44;;;;;;;;;;;;;;;2.51;85.76;99562.56;4915724;29;19979;-77
2022/04/02 17:09:23;;;;;;;;;;;;;;;2.48;86.15;99566.97;4917880;29;19919;-77
2022/04/02 17:11:48;;;;;;;;;;;;;;;2.44;86.27;99562.66;4914331;29;19994;-77
2022/04/02 17:14:13;;;;;;;;;;;;;;;2.40;86.00;99574.06;4917695;29;19923;-77
2022/04/02 17:16:40;;;;;;;;;;;;;;;2.35;85.91;99572.34;4918077;29;19930;-77
2022/04/02 17:19:24;;;;;;;;;;;;;;;2.32;85.79;99572.38;4914800;29;19927;-77
2022/04/02 17:21:49;;;;;;;;;;;;;;;2.30;85.38;99581.16;4917848;29;19925;-76
2022/04/02 17:24:15;;;;;;;;;;;;;;;2.29;85.22;99576.78;4923495;29;19919;-77
2022/04/02 17:26:40;;;;;;;;;;;;;;;2.29;85.16;99588.09;4917026;29;19926;-76
2022/04/02 17:29:15;;;;;;;;;;;;;;;2.26;84.92;99592.53;4916446;29;19926;-77
2022/04/02 17:31:43;;;;;;;;;;;;;;;2.24;84.56;99582.06;4916309;29;19971;-77
2022/04/02 17:34:19;;;;;;;;;;;;;;;2.22;84.49;99596.94;4916543;29;20351;-78
2022/04/02 17:36:47;;;;;;;;;;;;;;;2.26;84.31;99588.16;4916795;29;19927;-77
2022/04/02 17:39:13;;;;;;;;;;;;;;;2.24;84.18;99600.38;4912481;29;19927;-77
2022/04/02 17:41:39;;;;;;;;;;;;;;;2.26;84.06;99595.13;4917187;29;20264;-77
2022/04/02 17:44:23;;;;;;;;;;;;;;;2.26;84.02;99597.75;4917466;29;19923;-77
2022/04/02 17:46:58;;;;;;;;;;;;;;;2.24;83.76;99604.75;4917481;29;19967;-76
2022/04/02 17:49:34;;;;;;;;;;;;;;;2.21;83.45;99605.66;4922761;29;19919;-77
2022/04/02 17:52:01;;;;;;;;;;;;;;;2.22;83.34;99611.72;4916817;29;19919;-76
2022/04/02 17:54:45;;;;;;;;;;;;;;;2.24;83.36;99612.59;4917215;29;19966;-77
2022/04/02 17:57:10;;;;;;;;;;;;;;;2.21;83.12;99610.88;4915576;29;20378;-77
2022/04/02 17:59:45;;;;;;;;;;;;;;;2.22;82.90;99624.78;4917094;29;19926;-77
2022/04/02 18:02:11;;;;;;;;;;;;;;;2.19;82.71;99623.09;4915389;29;19927;-77
2022/04/02 18:04:36;;;;;;;;;;;;;;;2.17;82.49;99624.84;4916720;29;19930;-77
2022/04/02 18:07:14;;;;;;;;;;;;;;;2.18;82.45;99630.06;4916867;29;19946;-79
2022/04/02 18:09:41;;;;;;;;;;;;;;;2.56;86.13;99638.34;4913489;29;19954;-77
2022/04/02 18:12:06;;;;;;;;;;;;;;;2.64;88.88;99636.50;4913807;29;19950;-78
2022/04/02 18:14:32;;;;;;;;;;;;;;;2.57;89.58;99641.81;4915589;29;19923;-79
2022/04/02 18:16:57;;;;;;;;;;;;;;;2.52;89.94;99641.88;4914844;29;19935;-78
2022/04/02 18:19:22;;;;;;;;;;;;;;;2.50;89.94;99646.28;4914656;29;19923;-76
2022/04/02 18:21:49;;;;;;;;;;;;;;;2.45;89.79;99653.31;4916719;29;20398;-78
2022/04/02 18:24:14;;;;;;;;;;;;;;;2.48;89.63;99658.50;4915253;29;19923;-80
2022/04/02 18:26:39;;;;;;;;;;;;;;;2.41;89.17;99652.50;4916468;29;20370;-78
2022/04/02 18:29:06;;;;;;;;;;;;;;;2.42;88.70;99666.44;4915624;29;19927;-77
2022/04/02 18:31:31;;;;;;;;;;;;;;;2.40;88.38;99663.81;4899496;29;20295;-79
2022/04/02 18:33:57;;;;;;;;;;;;;;;2.38;88.13;99669.94;4914080;29;19923;-78
2022/04/02 18:36:22;;;;;;;;;;;;;;;2.32;87.73;99666.53;4914563;29;19927;-78
2022/04/02 18:38:48;;;;;;;;;;;;;;;2.33;87.27;99677.84;4895636;29;19990;-78
2022/04/02 18:41:13;;;;;;;;;;;;;;;2.34;86.80;99685.66;4896258;29;19985;-78
2022/04/02 18:43:39;;;;;;;;;;;;;;;2.32;86.54;99687.44;4896717;29;19989;-77
2022/04/02 18:46:04;;;;;;;;;;;;;;;2.33;86.25;99697.03;4897267;29;19924;-78
2022/04/02 18:48:29;;;;;;;;;;;;;;;2.30;85.77;99694.44;4895622;29;19927;-78
2022/04/02 18:50:54;;;;;;;;;;;;;;;2.30;85.55;99693.59;4896664;29;19923;-77
2022/04/02 18:53:20;;;;;;;;;;;;;;;2.30;85.16;99697.06;4895635;29;20038;-78
2022/04/02 18:55:45;;;;;;;;;;;;;;;2.31;85.03;99711.88;4896204;29;19987;-77
2022/04/02 18:58:11;;;;;;;;;;;;;;;2.32;84.56;99717.97;4894622;29;19930;-78
2022/04/02 19:00:36;;;;;;;;;;;;;;;2.33;84.30;99720.56;4896962;29;20014;-78
2022/04/02 19:03:02;;;;;;;;;;;;;;;2.32;84.11;99718.81;4896069;29;20086;-78
2022/04/02 19:05:27;;;;;;;;;;;;;;;2.28;83.84;99716.25;4896959;29;19927;-78
2022/04/02 19:07:53;;;;;;;;;;;;;;;2.30;83.63;99720.59;4897143;29;20328;-77
2022/04/02 19:10:19;;;;;;;;;;;;;;;2.30;83.29;99725.81;4896781;29;19920;-78
2022/04/02 19:12:44;;;;;;;;;;;;;;;2.33;83.01;99730.13;4896853;29;20391;-78
2022/04/02 19:15:09;;;;;;;;;;;;;;;2.32;82.86;99736.28;4896880;29;20382;-78
2022/04/02 19:17:35;;;;;;;;;;;;;;;2.28;82.62;99738.06;4895669;29;19924;-79
2022/04/02 19:20:02;;;;;;;;;;;;;;;2.32;82.33;99736.28;4896694;29;20395;-78
2022/04/02 19:22:27;;;;;;;;;;;;;;;2.31;81.90;99743.25;4893973;29;19926;-78
2022/04/02 19:24:53;;;;;;;;;;;;;;;2.30;81.73;99738.91;4896613;29;20306;-77
2022/04/02 19:27:18;;;;;;;;;;;;;;;2.32;81.62;99744.97;4896473;29;19930;-77